Norwegian Getaway — C6ZJ4 — position and weather

sailwx.info

Track history (hours):
 
Tides and Currents Weather Stations Pressure Air Temp Water Temp Dewpoint Dewpoint Depression Visibility Wind Speed Wind Dir Waves Ship Positions

Norwegian Getaway

Last reported at 2018-Sep-16 21:36 UTC. Time now 2018-Sep-19 03:42 UTC.
Position N 25°31' W 079°56'.

Length 326 m; draft 8.4 m.

Type: Passenger vessel. MMSI: 311050900.

Date/timePositionNaut miles runAvg speedWind from/ knotsBaromVisibWave heightAir tempDewpointWater temp
2018-Sep-16 21:36N 25°31' W 079°56'217.8
2018-Sep-16 21:30N 25°33' W 079°56'817.4
2018-Sep-16 21:03N 25°41' W 079°59'118.0
2018-Sep-16 21:00N 25°41' W 080°00'713.6
2018-Sep-16 20:30N 25°46' W 080°05'4 8.8
2018-Sep-16 20:03N 25°47' W 080°10'0 0.9
2018-Sep-16 20:00N 25°47' W 080°10'0 0.1
2018-Sep-16 19:28N 25°46' W 080°10'0 0.0
2018-Sep-16 18:58N 25°46' W 080°10'0 0.0
2018-Sep-16 18:28N 25°46' W 080°10'0 0.0
2018-Sep-16 17:58N 25°46' W 080°10'0 0.0
2018-Sep-16 17:28N 25°46' W 080°10'0 0.0
2018-Sep-16 17:01N 25°46' W 080°10'0 0.0
2018-Sep-16 16:58N 25°46' W 080°10'0 0.0
2018-Sep-16 16:28N 25°46' W 080°10'0 0.0
2018-Sep-16 16:01N 25°46' W 080°10'0 0.0
2018-Sep-16 15:55N 25°46' W 080°10'0 0.0
2018-Sep-16 15:31N 25°46' W 080°10'0 0.0
2018-Sep-16 15:04N 25°46' W 080°10'0 0.0
2018-Sep-16 14:55N 25°46' W 080°10'0 0.0
2018-Sep-16 14:01N 25°46' W 080°10'0 0.0
2018-Sep-16 13:28N 25°46' W 080°10'0 0.0
2018-Sep-16 13:01N 25°46' W 080°10'0 0.0
2018-Sep-16 12:58N 25°46' W 080°10'0 0.0
2018-Sep-16 12:31N 25°46' W 080°10'0 0.0
2018-Sep-16 12:01N 25°46' W 080°10'0 0.0
2018-Sep-16 11:28N 25°46' W 080°10'0 0.0
2018-Sep-16 11:01N 25°46' W 080°10'0 0.0
2018-Sep-16 11:00N 25°46' W 080°10'0 0.0
2018-Sep-16 10:30N 25°46' W 080°10'1 2.5
2018-Sep-16 10:03N 25°47' W 080°11'0 4.0
2018-Sep-16 10:01N 25°47' W 080°11'4 7.6
2018-Sep-16 09:30N 25°45' W 080°07'510.8
2018-Sep-16 09:04N 25°46' W 080°02'0 6.6
2018-Sep-16 09:00N 25°46' W 080°01'4 8.3
2018-Sep-16 08:30N 25°43' W 079°58'715.5
2018-Sep-16 08:03N 25°36' W 079°58'116.2
2018-Sep-16 08:00N 25°35' W 079°57'815.9
2018-Sep-16 07:30N 25°27' W 079°57'48614.6
2018-Sep-14 22:17N 20°32' W 086°57'1 3.4
2018-Sep-14 21:59N 20°31' W 086°57'0 0.0
2018-Sep-14 21:29N 20°31' W 086°57'0 0.0
2018-Sep-14 21:02N 20°31' W 086°57'0 0.0
2018-Sep-14 20:59N 20°31' W 086°57'0 0.0
2018-Sep-14 20:29N 20°31' W 086°57'0 0.0
2018-Sep-14 20:02N 20°31' W 086°57'0 0.0
2018-Sep-14 19:59N 20°31' W 086°57'0 0.0
2018-Sep-14 19:29N 20°31' W 086°57'0 0.0
2018-Sep-14 18:59N 20°31' W 086°57'0 0.0
2018-Sep-14 18:29N 20°31' W 086°57'0 0.0
2018-Sep-14 17:59N 20°31' W 086°57'0 0.0
2018-Sep-14 17:20N 20°31' W 086°57'0 0.0
2018-Sep-14 16:59N 20°31' W 086°57'0 0.0
2018-Sep-14 16:29N 20°31' W 086°57'0 0.0
2018-Sep-14 15:59N 20°31' W 086°57'0 0.0
2018-Sep-14 15:11N 20°31' W 086°57'0 0.0
2018-Sep-14 15:02N 20°31' W 086°57'0 0.0
2018-Sep-14 14:56N 20°31' W 086°57'0 0.0
2018-Sep-14 14:17N 20°31' W 086°57'0 0.0
2018-Sep-14 13:56N 20°31' W 086°57'0 0.0
2018-Sep-14 13:20N 20°31' W 086°57'0 0.0
2018-Sep-14 12:44N 20°31' W 086°57'0 0.0
2018-Sep-14 12:26N 20°31' W 086°57'1 2.1
2018-Sep-14 12:04N 20°30' W 086°58'0 7.0
2018-Sep-14 12:01N 20°30' W 086°58'3 6.9
2018-Sep-14 11:31N 20°28' W 087°01'4 9.7
2018-Sep-14 11:03N 20°24' W 087°04'1 9.8
2018-Sep-14 11:00N 20°24' W 087°04'  
2018-Sep-09 22:42N 25°17' W 079°58'1215.8
2018-Sep-09 21:55N 25°29' W 079°57'716.3
2018-Sep-09 21:31N 25°36' W 079°57'715.8
2018-Sep-09 21:02N 25°42' W 080°01'116.7
2018-Sep-09 21:01N 25°43' W 080°02'510.4
2018-Sep-09 20:30N 25°45' W 080°07'3 6.6
2018-Sep-09 20:03N 25°46' W 080°10'0 0.0
2018-Sep-09 20:00N 25°46' W 080°10'0 0.0
2018-Sep-09 19:30N 25°46' W 080°10'0 0.0
2018-Sep-09 19:03N 25°46' W 080°10'0 0.0
2018-Sep-09 19:00N 25°46' W 080°10'0 0.0
2018-Sep-09 18:27N 25°46' W 080°10'0 0.0
2018-Sep-09 18:03N 25°46' W 080°10'0 0.0
2018-Sep-09 18:00N 25°46' W 080°10'0 0.0
2018-Sep-09 17:30N 25°46' W 080°10'0 0.0
2018-Sep-09 16:57N 25°46' W 080°10'0 0.0
2018-Sep-09 16:30N 25°46' W 080°10'0 0.0
2018-Sep-09 16:00N 25°46' W 080°10'0 0.0
2018-Sep-09 15:30N 25°46' W 080°10'0 0.0
2018-Sep-09 15:03N 25°46' W 080°10'0 0.0
2018-Sep-09 15:00N 25°46' W 080°10'0 0.0
2018-Sep-09 14:03N 25°46' W 080°10'0 0.0
2018-Sep-09 14:00N 25°46' W 080°10'0 0.0
2018-Sep-09 13:30N 25°46' W 080°10'0 0.0
2018-Sep-09 13:00N 25°46' W 080°10'0 0.0
2018-Sep-09 12:23N 25°46' W 080°10'0 0.0
2018-Sep-09 12:02N 25°46' W 080°10'0 0.0
2018-Sep-09 11:56N 25°46' W 080°10'0 0.0
2018-Sep-09 11:26N 25°46' W 080°10'0 0.0
2018-Sep-09 10:59N 25°46' W 080°10'0 0.0
2018-Sep-09 10:30N 25°46' W 080°10'1 1.8
2018-Sep-09 10:04N 25°47' W 080°11'0 4.7
2018-Sep-09 10:01N 25°47' W 080°11'2 4.2
2018-Sep-09 09:30N 25°46' W 080°09'511.9
2018-Sep-09 09:03N 25°46' W 080°03'0 8.1
2018-Sep-09 09:01N 25°46' W 080°02'510.6
2018-Sep-09 08:30N 25°43' W 079°58'715.0
2018-Sep-09 08:03N 25°36' W 079°57'115.0
2018-Sep-09 08:01N 25°35' W 079°57'815.4
2018-Sep-09 07:30N 25°28' W 079°56'3816.1
2018-Sep-09 05:11N 24°54' W 080°14'415.9
2018-Sep-09 04:54N 24°50' W 080°16'44814.8
2018-Sep-07 22:44N 20°36' W 086°56'514.9
2018-Sep-07 22:25N 20°31' W 086°57'1 1.8
2018-Sep-07 22:01N 20°31' W 086°57'0 0.0
2018-Sep-07 21:58N 20°31' W 086°57'0 0.0
2018-Sep-07 21:28N 20°31' W 086°57'0 0.0
2018-Sep-07 21:01N 20°31' W 086°57'0 0.0
2018-Sep-07 20:58N 20°31' W 086°57'0 0.0
2018-Sep-07 20:28N 20°31' W 086°57'0 0.0
2018-Sep-07 20:01N 20°31' W 086°57'0 0.0
2018-Sep-07 19:55N 20°31' W 086°57'0 0.0
2018-Sep-07 19:28N 20°31' W 086°57'0 0.0
2018-Sep-07 19:01N 20°31' W 086°57'0 0.0
2018-Sep-07 18:55N 20°31' W 086°57'0 0.0
2018-Sep-07 18:28N 20°31' W 086°57'0 0.0
2018-Sep-07 18:01N 20°31' W 086°57'0 0.0
2018-Sep-07 17:58N 20°31' W 086°57'0 0.0
2018-Sep-07 17:28N 20°31' W 086°57'0 0.0
2018-Sep-07 17:01N 20°31' W 086°57'0 0.0
2018-Sep-07 16:58N 20°31' W 086°57'0 0.0
2018-Sep-07 16:28N 20°31' W 086°57'0 0.0
2018-Sep-07 16:01N 20°31' W 086°57'0 0.0
2018-Sep-07 15:58N 20°31' W 086°57'0 0.0
2018-Sep-07 15:28N 20°31' W 086°57'0 0.0
2018-Sep-07 15:01N 20°31' W 086°57'0 0.0
2018-Sep-07 14:58N 20°31' W 086°57'0 0.0
2018-Sep-07 14:28N 20°31' W 086°57'0 0.0
2018-Sep-07 13:58N 20°31' W 086°57'0 0.0
2018-Sep-07 13:28N 20°31' W 086°57'0 0.0
2018-Sep-07 13:04N 20°31' W 086°57'0 0.0
2018-Sep-07 13:01N 20°31' W 086°57'0 0.5
2018-Sep-07 12:31N 20°31' W 086°58'3 5.8
2018-Sep-07 12:03N 20°29' W 087°00'0 7.9
2018-Sep-07 12:00N 20°29' W 087°00'  
Track history (hours):
 
Tides and Currents Weather Stations Pressure Air Temp Water Temp Dewpoint Dewpoint Depression Visibility Wind Speed Wind Dir Waves Ship Positions

Norwegian Getaway

Last reported at 2018-Sep-16 21:36 UTC. Time now 2018-Sep-19 03:42 UTC.
Position N 25°31' W 079°56'.

Length 326 m; draft 8.4 m.

Type: Passenger vessel. MMSI: 311050900.

Date/timePositionNaut miles runAvg speedWind from/ knotsBaromVisibWave heightAir tempDewpointWater temp
2018-Sep-16 21:36N 25°31' W 079°56'217.8
2018-Sep-16 21:30N 25°33' W 079°56'817.4
2018-Sep-16 21:03N 25°41' W 079°59'118.0
2018-Sep-16 21:00N 25°41' W 080°00'713.6
2018-Sep-16 20:30N 25°46' W 080°05'4 8.8
2018-Sep-16 20:03N 25°47' W 080°10'0 0.9
2018-Sep-16 20:00N 25°47' W 080°10'0 0.1
2018-Sep-16 19:28N 25°46' W 080°10'0 0.0
2018-Sep-16 18:58N 25°46' W 080°10'0 0.0
2018-Sep-16 18:28N 25°46' W 080°10'0 0.0
2018-Sep-16 17:58N 25°46' W 080°10'0 0.0
2018-Sep-16 17:28N 25°46' W 080°10'0 0.0
2018-Sep-16 17:01N 25°46' W 080°10'0 0.0
2018-Sep-16 16:58N 25°46' W 080°10'0 0.0
2018-Sep-16 16:28N 25°46' W 080°10'0 0.0
2018-Sep-16 16:01N 25°46' W 080°10'0 0.0
2018-Sep-16 15:55N 25°46' W 080°10'0 0.0
2018-Sep-16 15:31N 25°46' W 080°10'0 0.0
2018-Sep-16 15:04N 25°46' W 080°10'0 0.0
2018-Sep-16 14:55N 25°46' W 080°10'0 0.0
2018-Sep-16 14:01N 25°46' W 080°10'0 0.0
2018-Sep-16 13:28N 25°46' W 080°10'0 0.0
2018-Sep-16 13:01N 25°46' W 080°10'0 0.0
2018-Sep-16 12:58N 25°46' W 080°10'0 0.0
2018-Sep-16 12:31N 25°46' W 080°10'0 0.0
2018-Sep-16 12:01N 25°46' W 080°10'0 0.0
2018-Sep-16 11:28N 25°46' W 080°10'0 0.0
2018-Sep-16 11:01N 25°46' W 080°10'0 0.0
2018-Sep-16 11:00N 25°46' W 080°10'0 0.0
2018-Sep-16 10:30N 25°46' W 080°10'1 2.5
2018-Sep-16 10:03N 25°47' W 080°11'0 4.0
2018-Sep-16 10:01N 25°47' W 080°11'4 7.6
2018-Sep-16 09:30N 25°45' W 080°07'510.8
2018-Sep-16 09:04N 25°46' W 080°02'0 6.6
2018-Sep-16 09:00N 25°46' W 080°01'4 8.3
2018-Sep-16 08:30N 25°43' W 079°58'715.5
2018-Sep-16 08:03N 25°36' W 079°58'116.2
2018-Sep-16 08:00N 25°35' W 079°57'815.9
2018-Sep-16 07:30N 25°27' W 079°57'48614.6
2018-Sep-14 22:17N 20°32' W 086°57'1 3.4
2018-Sep-14 21:59N 20°31' W 086°57'0 0.0
2018-Sep-14 21:29N 20°31' W 086°57'0 0.0
2018-Sep-14 21:02N 20°31' W 086°57'0 0.0
2018-Sep-14 20:59N 20°31' W 086°57'0 0.0
2018-Sep-14 20:29N 20°31' W 086°57'0 0.0
2018-Sep-14 20:02N 20°31' W 086°57'0 0.0
2018-Sep-14 19:59N 20°31' W 086°57'0 0.0
2018-Sep-14 19:29N 20°31' W 086°57'0 0.0
2018-Sep-14 18:59N 20°31' W 086°57'0 0.0
2018-Sep-14 18:29N 20°31' W 086°57'0 0.0
2018-Sep-14 17:59N 20°31' W 086°57'0 0.0
2018-Sep-14 17:20N 20°31' W 086°57'0 0.0
2018-Sep-14 16:59N 20°31' W 086°57'0 0.0
2018-Sep-14 16:29N 20°31' W 086°57'0 0.0
2018-Sep-14 15:59N 20°31' W 086°57'0 0.0
2018-Sep-14 15:11N 20°31' W 086°57'0 0.0
2018-Sep-14 15:02N 20°31' W 086°57'0 0.0
2018-Sep-14 14:56N 20°31' W 086°57'0 0.0
2018-Sep-14 14:17N 20°31' W 086°57'0 0.0
2018-Sep-14 13:56N 20°31' W 086°57'0 0.0
2018-Sep-14 13:20N 20°31' W 086°57'0 0.0
2018-Sep-14 12:44N 20°31' W 086°57'0 0.0
2018-Sep-14 12:26N 20°31' W 086°57'1 2.1
2018-Sep-14 12:04N 20°30' W 086°58'0 7.0
2018-Sep-14 12:01N 20°30' W 086°58'3 6.9
2018-Sep-14 11:31N 20°28' W 087°01'4 9.7
2018-Sep-14 11:03N 20°24' W 087°04'1 9.8
2018-Sep-14 11:00N 20°24' W 087°04'  
2018-Sep-09 22:42N 25°17' W 079°58'1215.8
2018-Sep-09 21:55N 25°29' W 079°57'716.3
2018-Sep-09 21:31N 25°36' W 079°57'715.8
2018-Sep-09 21:02N 25°42' W 080°01'116.7
2018-Sep-09 21:01N 25°43' W 080°02'510.4
2018-Sep-09 20:30N 25°45' W 080°07'3 6.6
2018-Sep-09 20:03N 25°46' W 080°10'0 0.0
2018-Sep-09 20:00N 25°46' W 080°10'0 0.0
2018-Sep-09 19:30N 25°46' W 080°10'0 0.0
2018-Sep-09 19:03N 25°46' W 080°10'0 0.0
2018-Sep-09 19:00N 25°46' W 080°10'0 0.0
2018-Sep-09 18:27N 25°46' W 080°10'0 0.0
2018-Sep-09 18:03N 25°46' W 080°10'0 0.0
2018-Sep-09 18:00N 25°46' W 080°10'0 0.0
2018-Sep-09 17:30N 25°46' W 080°10'0 0.0
2018-Sep-09 16:57N 25°46' W 080°10'0 0.0
2018-Sep-09 16:30N 25°46' W 080°10'0 0.0
2018-Sep-09 16:00N 25°46' W 080°10'0 0.0
2018-Sep-09 15:30N 25°46' W 080°10'0 0.0
2018-Sep-09 15:03N 25°46' W 080°10'0 0.0
2018-Sep-09 15:00N 25°46' W 080°10'0 0.0
2018-Sep-09 14:03N 25°46' W 080°10'0 0.0
2018-Sep-09 14:00N 25°46' W 080°10'0 0.0
2018-Sep-09 13:30N 25°46' W 080°10'0 0.0
2018-Sep-09 13:00N 25°46' W 080°10'0 0.0
2018-Sep-09 12:23N 25°46' W 080°10'0 0.0
2018-Sep-09 12:02N 25°46' W 080°10'0 0.0
2018-Sep-09 11:56N 25°46' W 080°10'0 0.0
2018-Sep-09 11:26N 25°46' W 080°10'0 0.0
2018-Sep-09 10:59N 25°46' W 080°10'0 0.0
2018-Sep-09 10:30N 25°46' W 080°10'1 1.8
2018-Sep-09 10:04N 25°47' W 080°11'0 4.7
2018-Sep-09 10:01N 25°47' W 080°11'2 4.2
2018-Sep-09 09:30N 25°46' W 080°09'511.9
2018-Sep-09 09:03N 25°46' W 080°03'0 8.1
2018-Sep-09 09:01N 25°46' W 080°02'510.6
2018-Sep-09 08:30N 25°43' W 079°58'715.0
2018-Sep-09 08:03N 25°36' W 079°57'115.0
2018-Sep-09 08:01N 25°35' W 079°57'815.4
2018-Sep-09 07:30N 25°28' W 079°56'3816.1
2018-Sep-09 05:11N 24°54' W 080°14'415.9
2018-Sep-09 04:54N 24°50' W 080°16'44814.8
2018-Sep-07 22:44N 20°36' W 086°56'514.9
2018-Sep-07 22:25N 20°31' W 086°57'1 1.8
2018-Sep-07 22:01N 20°31' W 086°57'0 0.0
2018-Sep-07 21:58N 20°31' W 086°57'0 0.0
2018-Sep-07 21:28N 20°31' W 086°57'0 0.0
2018-Sep-07 21:01N 20°31' W 086°57'0 0.0
2018-Sep-07 20:58N 20°31' W 086°57'0 0.0
2018-Sep-07 20:28N 20°31' W 086°57'0 0.0
2018-Sep-07 20:01N 20°31' W 086°57'0 0.0
2018-Sep-07 19:55N 20°31' W 086°57'0 0.0
2018-Sep-07 19:28N 20°31' W 086°57'0 0.0
2018-Sep-07 19:01N 20°31' W 086°57'0 0.0
2018-Sep-07 18:55N 20°31' W 086°57'0 0.0
2018-Sep-07 18:28N 20°31' W 086°57'0 0.0
2018-Sep-07 18:01N 20°31' W 086°57'0 0.0
2018-Sep-07 17:58N 20°31' W 086°57'0 0.0
2018-Sep-07 17:28N 20°31' W 086°57'0 0.0
2018-Sep-07 17:01N 20°31' W 086°57'0 0.0
2018-Sep-07 16:58N 20°31' W 086°57'0 0.0
2018-Sep-07 16:28N 20°31' W 086°57'0 0.0
2018-Sep-07 16:01N 20°31' W 086°57'0 0.0
2018-Sep-07 15:58N 20°31' W 086°57'0 0.0
2018-Sep-07 15:28N 20°31' W 086°57'0 0.0
2018-Sep-07 15:01N 20°31' W 086°57'0 0.0
2018-Sep-07 14:58N 20°31' W 086°57'0 0.0
2018-Sep-07 14:28N 20°31' W 086°57'0 0.0
2018-Sep-07 13:58N 20°31' W 086°57'0 0.0
2018-Sep-07 13:28N 20°31' W 086°57'0 0.0
2018-Sep-07 13:04N 20°31' W 086°57'0 0.0
2018-Sep-07 13:01N 20°31' W 086°57'0 0.5
2018-Sep-07 12:31N 20°31' W 086°58'3 5.8
2018-Sep-07 12:03N 20°29' W 087°00'0 7.9
2018-Sep-07 12:00N 20°29' W 087°00'  

Dump ship's entire track history